sensor_id;sensor_type;location;lat;lon;timestamp;P1;durP1;ratioP1;P2;durP2;ratioP2
33076;SDS011;67066;51.964;5.924;2024-03-25T00:01:41;18.50;;;4.30;;
33076;SDS011;67066;51.964;5.924;2024-03-25T00:04:07;22.55;;;4.18;;
33076;SDS011;67066;51.964;5.924;2024-03-25T00:06:33;22.38;;;3.55;;
33076;SDS011;67066;51.964;5.924;2024-03-25T00:09:00;26.50;;;4.47;;
33076;SDS011;67066;51.964;5.924;2024-03-25T00:11:26;29.52;;;3.75;;
33076;SDS011;67066;51.964;5.924;2024-03-25T00:13:53;31.40;;;4.70;;
33076;SDS011;67066;51.964;5.924;2024-03-25T00:16:19;22.70;;;3.75;;
33076;SDS011;67066;51.964;5.924;2024-03-25T00:18:45;23.42;;;3.95;;
33076;SDS011;67066;51.964;5.924;2024-03-25T00:21:11;24.38;;;4.32;;
33076;SDS011;67066;51.964;5.924;2024-03-25T00:23:37;19.63;;;3.95;;
33076;SDS011;67066;51.964;5.924;2024-03-25T00:26:03;13.95;;;3.78;;
33076;SDS011;67066;51.964;5.924;2024-03-25T00:28:29;36.63;;;4.50;;
33076;SDS011;67066;51.964;5.924;2024-03-25T00:30:55;19.65;;;3.65;;
33076;SDS011;67066;51.964;5.924;2024-03-25T00:33:21;22.92;;;3.47;;
33076;SDS011;67066;51.964;5.924;2024-03-25T00:35:47;21.00;;;3.65;;
33076;SDS011;67066;51.964;5.924;2024-03-25T00:38:15;25.17;;;3.60;;
33076;SDS011;67066;51.964;5.924;2024-03-25T00:40:41;28.33;;;3.95;;
33076;SDS011;67066;51.964;5.924;2024-03-25T00:43:07;18.65;;;3.20;;
33076;SDS011;67066;51.964;5.924;2024-03-25T00:45:33;9.75;;;3.10;;
33076;SDS011;67066;51.964;5.924;2024-03-25T00:47:59;26.42;;;3.95;;
33076;SDS011;67066;51.964;5.924;2024-03-25T00:50:26;25.77;;;3.40;;
33076;SDS011;67066;51.964;5.924;2024-03-25T00:52:52;21.48;;;3.42;;
33076;SDS011;67066;51.964;5.924;2024-03-25T00:55:18;33.83;;;3.40;;
33076;SDS011;67066;51.964;5.924;2024-03-25T00:57:44;18.10;;;4.18;;
33076;SDS011;67066;51.964;5.924;2024-03-25T01:00:11;20.48;;;3.40;;
33076;SDS011;67066;51.964;5.924;2024-03-25T01:02:37;30.58;;;4.57;;
33076;SDS011;67066;51.964;5.924;2024-03-25T01:05:04;30.52;;;4.93;;
33076;SDS011;67066;51.964;5.924;2024-03-25T01:07:31;22.35;;;3.10;;
33076;SDS011;67066;51.964;5.924;2024-03-25T01:09:57;17.58;;;4.55;;
33076;SDS011;67066;51.964;5.924;2024-03-25T01:12:24;24.38;;;4.18;;
33076;SDS011;67066;51.964;5.924;2024-03-25T01:14:51;23.25;;;4.10;;
33076;SDS011;67066;51.964;5.924;2024-03-25T01:17:17;17.90;;;3.15;;
33076;SDS011;67066;51.964;5.924;2024-03-25T01:19:43;11.88;;;3.10;;
33076;SDS011;67066;51.964;5.924;2024-03-25T01:22:10;20.02;;;3.67;;
33076;SDS011;67066;51.964;5.924;2024-03-25T01:24:36;23.10;;;3.13;;
33076;SDS011;67066;51.964;5.924;2024-03-25T01:27:02;22.42;;;4.47;;
33076;SDS011;67066;51.964;5.924;2024-03-25T01:29:28;20.45;;;4.28;;
33076;SDS011;67066;51.964;5.924;2024-03-25T01:31:54;22.83;;;3.05;;
33076;SDS011;67066;51.964;5.924;2024-03-25T01:34:23;34.72;;;6.07;;
33076;SDS011;67066;51.964;5.924;2024-03-25T01:36:49;26.60;;;4.78;;
33076;SDS011;67066;51.964;5.924;2024-03-25T01:39:15;22.33;;;3.88;;
33076;SDS011;67066;51.964;5.924;2024-03-25T01:41:41;31.90;;;4.85;;
33076;SDS011;67066;51.964;5.924;2024-03-25T01:44:07;25.10;;;5.10;;
33076;SDS011;67066;51.964;5.924;2024-03-25T01:46:33;25.73;;;4.50;;
33076;SDS011;67066;51.964;5.924;2024-03-25T01:48:59;32.03;;;4.20;;
33076;SDS011;67066;51.964;5.924;2024-03-25T01:51:25;38.97;;;4.85;;
33076;SDS011;67066;51.964;5.924;2024-03-25T01:53:52;22.58;;;4.10;;
33076;SDS011;67066;51.964;5.924;2024-03-25T01:56:20;26.92;;;4.72;;
33076;SDS011;67066;51.964;5.924;2024-03-25T01:58:48;47.45;;;5.03;;
33076;SDS011;67066;51.964;5.924;2024-03-25T02:01:14;43.17;;;5.40;;
33076;SDS011;67066;51.964;5.924;2024-03-25T02:03:41;19.40;;;4.70;;
33076;SDS011;67066;51.964;5.924;2024-03-25T02:06:15;24.00;;;4.05;;
33076;SDS011;67066;51.964;5.924;2024-03-25T02:08:43;23.25;;;4.18;;
33076;SDS011;67066;51.964;5.924;2024-03-25T02:11:09;37.50;;;3.97;;
33076;SDS011;67066;51.964;5.924;2024-03-25T02:13:39;25.58;;;5.00;;
33076;SDS011;67066;51.964;5.924;2024-03-25T02:16:05;32.42;;;4.70;;
33076;SDS011;67066;51.964;5.924;2024-03-25T02:18:32;16.17;;;3.95;;
33076;SDS011;67066;51.964;5.924;2024-03-25T02:20:59;29.92;;;5.28;;
33076;SDS011;67066;51.964;5.924;2024-03-25T02:23:25;32.20;;;5.28;;
33076;SDS011;67066;51.964;5.924;2024-03-25T02:25:52;20.88;;;4.40;;
33076;SDS011;67066;51.964;5.924;2024-03-25T02:28:19;23.13;;;5.30;;
33076;SDS011;67066;51.964;5.924;2024-03-25T02:30:45;31.60;;;4.57;;
33076;SDS011;67066;51.964;5.924;2024-03-25T02:33:12;33.13;;;5.25;;
33076;SDS011;67066;51.964;5.924;2024-03-25T02:35:39;47.80;;;6.20;;
33076;SDS011;67066;51.964;5.924;2024-03-25T02:38:07;31.30;;;4.13;;
33076;SDS011;67066;51.964;5.924;2024-03-25T02:40:34;31.38;;;5.05;;
33076;SDS011;67066;51.964;5.924;2024-03-25T02:43:01;31.63;;;4.80;;
33076;SDS011;67066;51.964;5.924;2024-03-25T02:45:27;39.80;;;5.30;;
33076;SDS011;67066;51.964;5.924;2024-03-25T02:47:54;40.55;;;5.25;;
33076;SDS011;67066;51.964;5.924;2024-03-25T02:50:21;39.55;;;4.90;;
33076;SDS011;67066;51.964;5.924;2024-03-25T02:52:47;34.42;;;5.65;;
33076;SDS011;67066;51.964;5.924;2024-03-25T02:55:13;32.33;;;5.18;;
33076;SDS011;67066;51.964;5.924;2024-03-25T02:57:39;26.25;;;4.75;;
33076;SDS011;67066;51.964;5.924;2024-03-25T03:00:05;23.63;;;4.90;;
33076;SDS011;67066;51.964;5.924;2024-03-25T03:02:33;23.23;;;4.68;;
33076;SDS011;67066;51.964;5.924;2024-03-25T03:04:59;22.23;;;4.07;;
33076;SDS011;67066;51.964;5.924;2024-03-25T03:07:26;26.85;;;4.82;;
33076;SDS011;67066;51.964;5.924;2024-03-25T03:09:52;17.67;;;4.30;;
33076;SDS011;67066;51.964;5.924;2024-03-25T03:12:18;30.40;;;5.60;;
33076;SDS011;67066;51.964;5.924;2024-03-25T03:14:44;24.63;;;5.53;;
33076;SDS011;67066;51.964;5.924;2024-03-25T03:17:10;18.90;;;5.13;;
33076;SDS011;67066;51.964;5.924;2024-03-25T03:19:36;25.38;;;4.88;;
33076;SDS011;67066;51.964;5.924;2024-03-25T03:22:02;18.35;;;4.75;;
33076;SDS011;67066;51.964;5.924;2024-03-25T03:24:29;31.63;;;5.35;;
33076;SDS011;67066;51.964;5.924;2024-03-25T03:26:55;36.63;;;4.95;;
33076;SDS011;67066;51.964;5.924;2024-03-25T03:29:21;30.05;;;5.60;;
33076;SDS011;67066;51.964;5.924;2024-03-25T03:31:47;25.42;;;4.13;;
33076;SDS011;67066;51.964;5.924;2024-03-25T03:34:13;33.10;;;5.60;;
33076;SDS011;67066;51.964;5.924;2024-03-25T03:36:39;20.52;;;4.43;;
33076;SDS011;67066;51.964;5.924;2024-03-25T03:39:06;23.02;;;5.35;;
33076;SDS011;67066;51.964;5.924;2024-03-25T03:41:34;21.85;;;4.60;;
33076;SDS011;67066;51.964;5.924;2024-03-25T03:44:01;23.75;;;5.13;;
33076;SDS011;67066;51.964;5.924;2024-03-25T03:46:28;38.45;;;5.97;;
33076;SDS011;67066;51.964;5.924;2024-03-25T03:48:54;23.27;;;4.57;;
33076;SDS011;67066;51.964;5.924;2024-03-25T03:51:20;23.23;;;5.13;;
33076;SDS011;67066;51.964;5.924;2024-03-25T03:53:46;26.38;;;5.57;;
33076;SDS011;67066;51.964;5.924;2024-03-25T03:56:12;27.70;;;4.82;;
33076;SDS011;67066;51.964;5.924;2024-03-25T03:58:38;20.30;;;5.65;;
33076;SDS011;67066;51.964;5.924;2024-03-25T04:01:04;30.48;;;5.72;;
33076;SDS011;67066;51.964;5.924;2024-03-25T04:03:30;21.73;;;4.95;;
33076;SDS011;67066;51.964;5.924;2024-03-25T04:05:56;34.00;;;6.55;;
33076;SDS011;67066;51.964;5.924;2024-03-25T04:08:22;21.88;;;5.07;;
33076;SDS011;67066;51.964;5.924;2024-03-25T04:10:49;27.60;;;5.75;;
33076;SDS011;67066;51.964;5.924;2024-03-25T04:13:15;33.55;;;6.72;;
33076;SDS011;67066;51.964;5.924;2024-03-25T04:15:43;30.30;;;6.28;;
33076;SDS011;67066;51.964;5.924;2024-03-25T04:18:09;39.38;;;5.55;;
33076;SDS011;67066;51.964;5.924;2024-03-25T04:20:38;21.83;;;5.82;;
33076;SDS011;67066;51.964;5.924;2024-03-25T04:23:06;42.10;;;6.63;;
33076;SDS011;67066;51.964;5.924;2024-03-25T04:25:33;20.13;;;5.63;;
33076;SDS011;67066;51.964;5.924;2024-03-25T04:28:00;28.88;;;5.57;;
33076;SDS011;67066;51.964;5.924;2024-03-25T04:30:26;21.13;;;5.28;;
33076;SDS011;67066;51.964;5.924;2024-03-25T04:32:52;30.42;;;7.30;;
33076;SDS011;67066;51.964;5.924;2024-03-25T04:35:18;27.90;;;6.13;;
33076;SDS011;67066;51.964;5.924;2024-03-25T04:37:44;18.20;;;5.07;;
33076;SDS011;67066;51.964;5.924;2024-03-25T04:40:10;24.85;;;7.70;;
33076;SDS011;67066;51.964;5.924;2024-03-25T04:42:40;30.95;;;6.85;;
33076;SDS011;67066;51.964;5.924;2024-03-25T04:45:06;26.92;;;6.65;;
33076;SDS011;67066;51.964;5.924;2024-03-25T04:47:33;28.60;;;5.72;;
33076;SDS011;67066;51.964;5.924;2024-03-25T04:49:59;17.90;;;5.88;;
33076;SDS011;67066;51.964;5.924;2024-03-25T04:52:25;35.70;;;6.63;;
33076;SDS011;67066;51.964;5.924;2024-03-25T04:54:51;26.48;;;6.18;;
33076;SDS011;67066;51.964;5.924;2024-03-25T04:57:17;38.00;;;6.30;;
33076;SDS011;67066;51.964;5.924;2024-03-25T04:59:43;35.85;;;5.88;;
33076;SDS011;67066;51.964;5.924;2024-03-25T05:02:10;45.88;;;7.40;;
33076;SDS011;67066;51.964;5.924;2024-03-25T05:04:36;28.83;;;7.95;;
33076;SDS011;67066;51.964;5.924;2024-03-25T05:07:02;27.27;;;5.70;;
33076;SDS011;67066;51.964;5.924;2024-03-25T05:09:28;32.33;;;7.80;;
33076;SDS011;67066;51.964;5.924;2024-03-25T05:11:54;25.83;;;5.88;;
33076;SDS011;67066;51.964;5.924;2024-03-25T05:14:20;24.95;;;6.63;;
33076;SDS011;67066;51.964;5.924;2024-03-25T05:16:46;37.70;;;6.18;;
33076;SDS011;67066;51.964;5.924;2024-03-25T05:19:12;29.17;;;6.82;;
33076;SDS011;67066;51.964;5.924;2024-03-25T05:21:38;27.52;;;6.10;;
33076;SDS011;67066;51.964;5.924;2024-03-25T05:24:04;20.92;;;5.20;;
33076;SDS011;67066;51.964;5.924;2024-03-25T05:26:30;29.38;;;5.65;;
33076;SDS011;67066;51.964;5.924;2024-03-25T05:28:56;24.00;;;5.60;;
33076;SDS011;67066;51.964;5.924;2024-03-25T05:31:23;27.80;;;6.03;;
33076;SDS011;67066;51.964;5.924;2024-03-25T05:33:49;16.67;;;5.78;;
33076;SDS011;67066;51.964;5.924;2024-03-25T05:36:16;22.73;;;5.30;;
33076;SDS011;67066;51.964;5.924;2024-03-25T05:38:42;16.38;;;5.40;;
33076;SDS011;67066;51.964;5.924;2024-03-25T05:41:08;23.17;;;6.05;;
33076;SDS011;67066;51.964;5.924;2024-03-25T05:43:35;21.23;;;4.30;;
33076;SDS011;67066;51.964;5.924;2024-03-25T05:46:01;18.60;;;5.13;;
33076;SDS011;67066;51.964;5.924;2024-03-25T05:48:28;16.58;;;5.40;;
33076;SDS011;67066;51.964;5.924;2024-03-25T05:53:27;38.22;;;6.30;;
33076;SDS011;67066;51.964;5.924;2024-03-25T05:55:54;24.30;;;5.25;;
33076;SDS011;67066;51.964;5.924;2024-03-25T05:58:21;39.35;;;5.57;;
33076;SDS011;67066;51.964;5.924;2024-03-25T06:00:48;36.08;;;6.53;;
33076;SDS011;67066;51.964;5.924;2024-03-25T06:03:14;39.88;;;5.93;;
33076;SDS011;67066;51.964;5.924;2024-03-25T06:05:41;20.60;;;4.95;;
33076;SDS011;67066;51.964;5.924;2024-03-25T06:08:07;32.88;;;6.40;;
33076;SDS011;67066;51.964;5.924;2024-03-25T06:10:41;24.48;;;5.97;;
33076;SDS011;67066;51.964;5.924;2024-03-25T06:13:07;27.15;;;4.90;;
33076;SDS011;67066;51.964;5.924;2024-03-25T06:15:33;28.48;;;6.88;;
33076;SDS011;67066;51.964;5.924;2024-03-25T06:17:59;41.53;;;5.18;;
33076;SDS011;67066;51.964;5.924;2024-03-25T06:20:25;46.17;;;5.53;;
33076;SDS011;67066;51.964;5.924;2024-03-25T06:22:52;24.45;;;5.47;;
33076;SDS011;67066;51.964;5.924;2024-03-25T06:25:18;19.63;;;5.47;;
33076;SDS011;67066;51.964;5.924;2024-03-25T06:27:44;25.65;;;6.28;;
33076;SDS011;67066;51.964;5.924;2024-03-25T06:30:10;34.83;;;7.15;;
33076;SDS011;67066;51.964;5.924;2024-03-25T06:32:55;29.10;;;7.32;;
33076;SDS011;67066;51.964;5.924;2024-03-25T06:35:42;30.92;;;6.55;;
33076;SDS011;67066;51.964;5.924;2024-03-25T06:38:09;38.92;;;7.40;;
33076;SDS011;67066;51.964;5.924;2024-03-25T06:40:36;28.95;;;6.60;;
33076;SDS011;67066;51.964;5.924;2024-03-25T06:43:02;34.80;;;7.45;;
33076;SDS011;67066;51.964;5.924;2024-03-25T06:45:28;28.65;;;7.55;;
33076;SDS011;67066;51.964;5.924;2024-03-25T06:47:55;33.55;;;7.22;;
33076;SDS011;67066;51.964;5.924;2024-03-25T06:50:21;28.63;;;7.35;;
33076;SDS011;67066;51.964;5.924;2024-03-25T06:52:48;36.92;;;8.57;;
33076;SDS011;67066;51.964;5.924;2024-03-25T06:55:15;35.45;;;8.98;;
33076;SDS011;67066;51.964;5.924;2024-03-25T06:57:41;40.78;;;8.18;;
33076;SDS011;67066;51.964;5.924;2024-03-25T07:00:07;35.03;;;8.52;;
33076;SDS011;67066;51.964;5.924;2024-03-25T07:02:38;39.38;;;8.38;;
33076;SDS011;67066;51.964;5.924;2024-03-25T07:05:05;35.90;;;9.02;;
33076;SDS011;67066;51.964;5.924;2024-03-25T07:07:32;24.45;;;6.85;;
33076;SDS011;67066;51.964;5.924;2024-03-25T07:09:59;33.25;;;8.13;;
33076;SDS011;67066;51.964;5.924;2024-03-25T07:12:28;30.42;;;5.90;;
33076;SDS011;67066;51.964;5.924;2024-03-25T07:14:54;32.00;;;6.80;;
33076;SDS011;67066;51.964;5.924;2024-03-25T07:17:21;22.10;;;4.75;;
33076;SDS011;67066;51.964;5.924;2024-03-25T07:19:47;17.70;;;4.93;;
33076;SDS011;67066;51.964;5.924;2024-03-25T07:22:13;19.90;;;5.38;;
33076;SDS011;67066;51.964;5.924;2024-03-25T07:24:39;18.08;;;4.97;;
33076;SDS011;67066;51.964;5.924;2024-03-25T07:27:06;26.52;;;4.70;;
33076;SDS011;67066;51.964;5.924;2024-03-25T07:29:33;21.25;;;5.18;;
33076;SDS011;67066;51.964;5.924;2024-03-25T07:31:59;27.65;;;5.97;;
33076;SDS011;67066;51.964;5.924;2024-03-25T07:34:25;27.50;;;5.70;;
33076;SDS011;67066;51.964;5.924;2024-03-25T07:36:52;28.80;;;5.47;;
33076;SDS011;67066;51.964;5.924;2024-03-25T07:39:18;28.05;;;5.05;;
33076;SDS011;67066;51.964;5.924;2024-03-25T07:41:44;26.50;;;5.65;;
33076;SDS011;67066;51.964;5.924;2024-03-25T07:44:10;20.83;;;4.78;;
33076;SDS011;67066;51.964;5.924;2024-03-25T07:46:36;21.17;;;4.90;;
33076;SDS011;67066;51.964;5.924;2024-03-25T07:49:02;18.45;;;4.43;;
33076;SDS011;67066;51.964;5.924;2024-03-25T07:51:28;27.30;;;4.78;;
33076;SDS011;67066;51.964;5.924;2024-03-25T07:53:54;23.58;;;4.25;;
33076;SDS011;67066;51.964;5.924;2024-03-25T07:56:20;24.77;;;5.00;;
33076;SDS011;67066;51.964;5.924;2024-03-25T07:58:46;22.27;;;5.53;;
33076;SDS011;67066;51.964;5.924;2024-03-25T08:01:12;35.90;;;5.03;;
33076;SDS011;67066;51.964;5.924;2024-03-25T08:03:38;21.83;;;5.53;;
33076;SDS011;67066;51.964;5.924;2024-03-25T08:06:04;17.35;;;4.28;;
33076;SDS011;67066;51.964;5.924;2024-03-25T08:08:31;26.17;;;6.32;;
33076;SDS011;67066;51.964;5.924;2024-03-25T08:10:57;30.75;;;5.10;;
33076;SDS011;67066;51.964;5.924;2024-03-25T08:13:23;27.55;;;5.75;;
33076;SDS011;67066;51.964;5.924;2024-03-25T08:15:49;19.63;;;4.43;;
33076;SDS011;67066;51.964;5.924;2024-03-25T08:18:15;22.75;;;5.47;;
33076;SDS011;67066;51.964;5.924;2024-03-25T08:20:41;20.13;;;4.82;;
33076;SDS011;67066;51.964;5.924;2024-03-25T08:23:07;17.05;;;4.70;;
33076;SDS011;67066;51.964;5.924;2024-03-25T08:25:33;23.05;;;4.72;;
33076;SDS011;67066;51.964;5.924;2024-03-25T08:27:59;20.15;;;4.43;;
33076;SDS011;67066;51.964;5.924;2024-03-25T08:30:25;15.38;;;5.07;;
33076;SDS011;67066;51.964;5.924;2024-03-25T08:32:51;18.48;;;5.13;;
33076;SDS011;67066;51.964;5.924;2024-03-25T08:35:17;15.30;;;4.40;;
33076;SDS011;67066;51.964;5.924;2024-03-25T08:37:43;23.80;;;5.07;;
33076;SDS011;67066;51.964;5.924;2024-03-25T08:40:09;23.95;;;5.07;;
33076;SDS011;67066;51.964;5.924;2024-03-25T08:42:35;20.63;;;4.40;;
33076;SDS011;67066;51.964;5.924;2024-03-25T08:45:02;19.02;;;4.65;;
33076;SDS011;67066;51.964;5.924;2024-03-25T08:47:28;18.60;;;4.30;;
33076;SDS011;67066;51.964;5.924;2024-03-25T08:49:54;18.00;;;4.57;;
33076;SDS011;67066;51.964;5.924;2024-03-25T08:52:20;16.33;;;5.15;;
33076;SDS011;67066;51.964;5.924;2024-03-25T08:54:46;22.88;;;5.30;;
33076;SDS011;67066;51.964;5.924;2024-03-25T08:57:12;18.55;;;5.18;;
33076;SDS011;67066;51.964;5.924;2024-03-25T08:59:38;28.20;;;5.25;;
33076;SDS011;67066;51.964;5.924;2024-03-25T09:02:04;17.27;;;5.13;;
33076;SDS011;67066;51.964;5.924;2024-03-25T09:04:31;19.00;;;4.32;;
33076;SDS011;67066;51.964;5.924;2024-03-25T09:06:57;20.30;;;3.20;;
33076;SDS011;67066;51.964;5.924;2024-03-25T09:09:23;24.42;;;3.42;;
33076;SDS011;67066;51.964;5.924;2024-03-25T09:12:15;18.55;;;3.90;;
33076;SDS011;67066;51.964;5.924;2024-03-25T09:14:41;12.88;;;3.28;;
33076;SDS011;67066;51.964;5.924;2024-03-25T09:17:07;15.80;;;3.20;;
33076;SDS011;67066;51.964;5.924;2024-03-25T09:19:34;16.50;;;3.20;;
33076;SDS011;67066;51.964;5.924;2024-03-25T09:22:00;20.67;;;4.28;;
33076;SDS011;67066;51.964;5.924;2024-03-25T09:24:26;27.50;;;4.57;;
33076;SDS011;67066;51.964;5.924;2024-03-25T09:26:52;20.58;;;4.20;;
33076;SDS011;67066;51.964;5.924;2024-03-25T09:29:18;14.07;;;3.47;;
33076;SDS011;67066;51.964;5.924;2024-03-25T09:31:45;13.80;;;3.42;;
33076;SDS011;67066;51.964;5.924;2024-03-25T09:34:11;22.23;;;4.07;;
33076;SDS011;67066;51.964;5.924;2024-03-25T09:36:37;16.60;;;3.42;;
33076;SDS011;67066;51.964;5.924;2024-03-25T09:39:04;14.88;;;3.33;;
33076;SDS011;67066;51.964;5.924;2024-03-25T09:41:30;18.13;;;3.83;;
33076;SDS011;67066;51.964;5.924;2024-03-25T09:44:00;15.95;;;3.83;;
33076;SDS011;67066;51.964;5.924;2024-03-25T09:46:26;22.13;;;3.47;;
33076;SDS011;67066;51.964;5.924;2024-03-25T09:48:53;17.35;;;3.63;;
33076;SDS011;67066;51.964;5.924;2024-03-25T09:51:19;17.35;;;3.42;;
33076;SDS011;67066;51.964;5.924;2024-03-25T09:53:46;13.90;;;3.03;;
33076;SDS011;67066;51.964;5.924;2024-03-25T09:56:12;14.13;;;3.75;;
33076;SDS011;67066;51.964;5.924;2024-03-25T09:58:39;17.50;;;3.40;;
33076;SDS011;67066;51.964;5.924;2024-03-25T10:01:07;19.67;;;3.75;;
33076;SDS011;67066;51.964;5.924;2024-03-25T10:03:33;17.27;;;3.70;;
33076;SDS011;67066;51.964;5.924;2024-03-25T10:05:59;19.38;;;4.18;;
33076;SDS011;67066;51.964;5.924;2024-03-25T10:08:25;14.70;;;3.28;;
33076;SDS011;67066;51.964;5.924;2024-03-25T10:10:51;20.98;;;3.67;;
33076;SDS011;67066;51.964;5.924;2024-03-25T10:13:18;24.55;;;3.58;;
33076;SDS011;67066;51.964;5.924;2024-03-25T10:15:47;14.73;;;3.60;;
33076;SDS011;67066;51.964;5.924;2024-03-25T10:18:13;22.42;;;3.55;;
33076;SDS011;67066;51.964;5.924;2024-03-25T10:20:47;18.45;;;3.38;;
33076;SDS011;67066;51.964;5.924;2024-03-25T10:23:14;15.15;;;3.20;;
33076;SDS011;67066;51.964;5.924;2024-03-25T10:25:40;14.27;;;3.28;;
33076;SDS011;67066;51.964;5.924;2024-03-25T10:28:06;17.75;;;3.78;;
33076;SDS011;67066;51.964;5.924;2024-03-25T10:30:33;22.50;;;3.58;;
33076;SDS011;67066;51.964;5.924;2024-03-25T10:33:03;12.45;;;3.40;;
33076;SDS011;67066;51.964;5.924;2024-03-25T10:35:31;23.90;;;3.80;;
33076;SDS011;67066;51.964;5.924;2024-03-25T10:37:59;16.95;;;3.83;;
33076;SDS011;67066;51.964;5.924;2024-03-25T10:40:27;12.38;;;3.67;;
33076;SDS011;67066;51.964;5.924;2024-03-25T10:45:53;10.48;;;2.67;;
33076;SDS011;67066;51.964;5.924;2024-03-25T10:48:37;18.02;;;3.30;;
33076;SDS011;67066;51.964;5.924;2024-03-25T10:51:05;18.40;;;3.53;;
33076;SDS011;67066;51.964;5.924;2024-03-25T10:53:34;16.83;;;3.25;;
33076;SDS011;67066;51.964;5.924;2024-03-25T10:56:02;18.90;;;3.80;;
33076;SDS011;67066;51.964;5.924;2024-03-25T10:58:30;16.45;;;3.30;;
33076;SDS011;67066;51.964;5.924;2024-03-25T11:00:58;11.98;;;3.15;;
33076;SDS011;67066;51.964;5.924;2024-03-25T11:03:25;11.98;;;2.78;;
33076;SDS011;67066;51.964;5.924;2024-03-25T11:05:52;9.40;;;2.60;;
33076;SDS011;67066;51.964;5.924;2024-03-25T11:08:18;10.20;;;3.67;;
33076;SDS011;67066;51.964;5.924;2024-03-25T11:10:47;17.63;;;3.45;;
33076;SDS011;67066;51.964;5.924;2024-03-25T11:13:18;12.25;;;2.85;;
33076;SDS011;67066;51.964;5.924;2024-03-25T11:15:45;14.05;;;3.10;;
33076;SDS011;67066;51.964;5.924;2024-03-25T11:18:16;19.63;;;3.58;;
33076;SDS011;67066;51.964;5.924;2024-03-25T11:20:43;15.73;;;3.28;;
33076;SDS011;67066;51.964;5.924;2024-03-25T11:23:14;17.45;;;3.83;;
33076;SDS011;67066;51.964;5.924;2024-03-25T11:25:40;9.73;;;3.65;;
33076;SDS011;67066;51.964;5.924;2024-03-25T11:28:10;9.60;;;2.75;;
33076;SDS011;67066;51.964;5.924;2024-03-25T11:30:37;12.38;;;3.05;;
33076;SDS011;67066;51.964;5.924;2024-03-25T11:33:06;13.27;;;3.17;;
33076;SDS011;67066;51.964;5.924;2024-03-25T11:35:37;12.02;;;2.80;;
33076;SDS011;67066;51.964;5.924;2024-03-25T11:38:03;13.43;;;3.05;;
33076;SDS011;67066;51.964;5.924;2024-03-25T11:40:30;16.30;;;3.45;;
33076;SDS011;67066;51.964;5.924;2024-03-25T11:42:56;16.60;;;3.35;;
33076;SDS011;67066;51.964;5.924;2024-03-25T11:45:24;15.68;;;3.25;;
33076;SDS011;67066;51.964;5.924;2024-03-25T11:47:50;16.65;;;3.72;;
33076;SDS011;67066;51.964;5.924;2024-03-25T11:50:16;15.00;;;3.53;;
33076;SDS011;67066;51.964;5.924;2024-03-25T11:52:44;6.53;;;2.83;;
33076;SDS011;67066;51.964;5.924;2024-03-25T11:55:10;13.45;;;3.38;;
33076;SDS011;67066;51.964;5.924;2024-03-25T11:57:41;20.35;;;3.50;;
33076;SDS011;67066;51.964;5.924;2024-03-25T12:00:08;9.93;;;3.03;;
33076;SDS011;67066;51.964;5.924;2024-03-25T12:02:43;11.10;;;3.38;;
33076;SDS011;67066;51.964;5.924;2024-03-25T12:05:11;15.23;;;3.40;;
33076;SDS011;67066;51.964;5.924;2024-03-25T12:07:37;17.25;;;3.65;;
33076;SDS011;67066;51.964;5.924;2024-03-25T12:10:04;10.88;;;3.55;;
33076;SDS011;67066;51.964;5.924;2024-03-25T12:12:49;14.07;;;3.83;;
33076;SDS011;67066;51.964;5.924;2024-03-25T12:15:16;15.27;;;3.67;;
33076;SDS011;67066;51.964;5.924;2024-03-25T12:17:42;9.07;;;3.47;;
33076;SDS011;67066;51.964;5.924;2024-03-25T12:20:09;14.07;;;3.47;;
33076;SDS011;67066;51.964;5.924;2024-03-25T12:22:36;13.10;;;3.47;;
33076;SDS011;67066;51.964;5.924;2024-03-25T12:25:03;10.30;;;3.63;;
33076;SDS011;67066;51.964;5.924;2024-03-25T12:27:31;11.23;;;3.30;;
33076;SDS011;67066;51.964;5.924;2024-03-25T12:30:02;15.55;;;3.55;;
33076;SDS011;67066;51.964;5.924;2024-03-25T12:32:42;18.38;;;3.80;;
33076;SDS011;67066;51.964;5.924;2024-03-25T12:35:10;12.50;;;4.18;;
33076;SDS011;67066;51.964;5.924;2024-03-25T12:37:40;14.02;;;3.47;;
33076;SDS011;67066;51.964;5.924;2024-03-25T12:40:07;9.90;;;4.18;;
33076;SDS011;67066;51.964;5.924;2024-03-25T12:42:36;7.10;;;3.42;;
33076;SDS011;67066;51.964;5.924;2024-03-25T12:45:03;9.23;;;3.35;;
33076;SDS011;67066;51.964;5.924;2024-03-25T12:47:29;12.45;;;4.45;;
33076;SDS011;67066;51.964;5.924;2024-03-25T12:49:57;11.60;;;3.80;;
33076;SDS011;67066;51.964;5.924;2024-03-25T12:52:23;13.52;;;4.50;;
33076;SDS011;67066;51.964;5.924;2024-03-25T12:54:49;11.80;;;3.38;;
33076;SDS011;67066;51.964;5.924;2024-03-25T12:57:15;11.90;;;3.65;;
33076;SDS011;67066;51.964;5.924;2024-03-25T12:59:41;10.55;;;4.50;;
33076;SDS011;67066;51.964;5.924;2024-03-25T13:02:10;18.35;;;4.20;;
33076;SDS011;67066;51.964;5.924;2024-03-25T13:04:37;15.75;;;3.70;;
33076;SDS011;67066;51.964;5.924;2024-03-25T13:07:05;15.45;;;4.78;;
33076;SDS011;67066;51.964;5.924;2024-03-25T13:09:31;16.60;;;4.32;;
33076;SDS011;67066;51.964;5.924;2024-03-25T13:11:58;20.00;;;4.43;;
33076;SDS011;67066;51.964;5.924;2024-03-25T13:14:24;12.80;;;4.57;;
33076;SDS011;67066;51.964;5.924;2024-03-25T13:16:51;14.48;;;4.68;;
33076;SDS011;67066;51.964;5.924;2024-03-25T13:19:17;13.25;;;4.13;;
33076;SDS011;67066;51.964;5.924;2024-03-25T13:21:43;8.15;;;3.45;;
33076;SDS011;67066;51.964;5.924;2024-03-25T13:24:09;9.95;;;3.65;;
33076;SDS011;67066;51.964;5.924;2024-03-25T13:26:35;13.68;;;3.08;;
33076;SDS011;67066;51.964;5.924;2024-03-25T13:29:01;7.47;;;3.28;;
33076;SDS011;67066;51.964;5.924;2024-03-25T13:31:28;9.50;;;3.70;;
33076;SDS011;67066;51.964;5.924;2024-03-25T13:33:54;11.45;;;4.22;;
33076;SDS011;67066;51.964;5.924;2024-03-25T13:36:20;6.55;;;2.60;;
33076;SDS011;67066;51.964;5.924;2024-03-25T13:38:46;8.35;;;3.03;;
33076;SDS011;67066;51.964;5.924;2024-03-25T13:41:12;7.43;;;3.28;;
33076;SDS011;67066;51.964;5.924;2024-03-25T13:43:44;10.55;;;3.55;;
33076;SDS011;67066;51.964;5.924;2024-03-25T13:46:10;5.45;;;3.20;;
33076;SDS011;67066;51.964;5.924;2024-03-25T13:48:37;10.75;;;3.55;;
33076;SDS011;67066;51.964;5.924;2024-03-25T13:51:04;7.57;;;3.25;;
33076;SDS011;67066;51.964;5.924;2024-03-25T13:53:30;14.75;;;3.20;;
33076;SDS011;67066;51.964;5.924;2024-03-25T13:55:56;8.25;;;3.83;;
33076;SDS011;67066;51.964;5.924;2024-03-25T13:58:22;10.70;;;3.17;;
33076;SDS011;67066;51.964;5.924;2024-03-25T14:00:48;7.50;;;3.80;;
33076;SDS011;67066;51.964;5.924;2024-03-25T14:03:15;9.70;;;3.72;;
33076;SDS011;67066;51.964;5.924;2024-03-25T14:05:41;8.15;;;3.33;;
33076;SDS011;67066;51.964;5.924;2024-03-25T14:08:08;11.80;;;3.60;;
33076;SDS011;67066;51.964;5.924;2024-03-25T14:10:35;10.68;;;3.65;;
33076;SDS011;67066;51.964;5.924;2024-03-25T14:13:01;12.00;;;3.40;;
33076;SDS011;67066;51.964;5.924;2024-03-25T14:15:29;10.57;;;3.28;;
33076;SDS011;67066;51.964;5.924;2024-03-25T14:17:55;7.53;;;3.22;;
33076;SDS011;67066;51.964;5.924;2024-03-25T14:20:21;7.93;;;2.85;;
33076;SDS011;67066;51.964;5.924;2024-03-25T14:22:47;11.70;;;3.22;;
33076;SDS011;67066;51.964;5.924;2024-03-25T14:25:13;3.80;;;2.42;;
33076;SDS011;67066;51.964;5.924;2024-03-25T14:27:41;5.63;;;2.70;;
33076;SDS011;67066;51.964;5.924;2024-03-25T14:30:07;7.70;;;2.85;;
33076;SDS011;67066;51.964;5.924;2024-03-25T14:32:36;5.60;;;3.38;;
33076;SDS011;67066;51.964;5.924;2024-03-25T14:35:04;7.53;;;3.50;;
33076;SDS011;67066;51.964;5.924;2024-03-25T14:37:34;7.10;;;3.13;;
33076;SDS011;67066;51.964;5.924;2024-03-25T14:40:00;4.68;;;2.38;;